sensor_id;sensor_type;location;lat;lon;timestamp;temperature;humidity
20831;DHT22;10576;53.556;9.868;2023-07-13T00:00:38;15.30;99.90
20831;DHT22;10576;53.556;9.868;2023-07-13T00:03:04;15.40;99.90
20831;DHT22;10576;53.556;9.868;2023-07-13T00:05:30;15.30;99.90
20831;DHT22;10576;53.556;9.868;2023-07-13T00:07:56;15.30;99.90
20831;DHT22;10576;53.556;9.868;2023-07-13T00:10:21;15.30;99.90
20831;DHT22;10576;53.556;9.868;2023-07-13T00:12:47;15.30;99.90
20831;DHT22;10576;53.556;9.868;2023-07-13T00:15:17;15.20;99.90
20831;DHT22;10576;53.556;9.868;2023-07-13T00:17:51;15.20;99.90
20831;DHT22;10576;53.556;9.868;2023-07-13T00:20:17;15.20;99.90
20831;DHT22;10576;53.556;9.868;2023-07-13T00:22:43;15.10;99.90
20831;DHT22;10576;53.556;9.868;2023-07-13T00:25:10;15.10;99.90
20831;DHT22;10576;53.556;9.868;2023-07-13T00:27:36;15.10;99.90
20831;DHT22;10576;53.556;9.868;2023-07-13T00:30:01;15.00;99.90
20831;DHT22;10576;53.556;9.868;2023-07-13T00:32:28;15.00;99.90
20831;DHT22;10576;53.556;9.868;2023-07-13T00:34:55;15.00;99.90
20831;DHT22;10576;53.556;9.868;2023-07-13T00:37:20;14.90;99.90
20831;DHT22;10576;53.556;9.868;2023-07-13T00:39:46;14.90;99.90
20831;DHT22;10576;53.556;9.868;2023-07-13T00:42:11;14.90;99.90
20831;DHT22;10576;53.556;9.868;2023-07-13T00:44:37;14.90;99.90
20831;DHT22;10576;53.556;9.868;2023-07-13T00:47:04;14.90;99.90
20831;DHT22;10576;53.556;9.868;2023-07-13T00:49:30;14.90;99.90
20831;DHT22;10576;53.556;9.868;2023-07-13T00:52:04;14.90;99.90
20831;DHT22;10576;53.556;9.868;2023-07-13T00:54:35;14.90;99.90
20831;DHT22;10576;53.556;9.868;2023-07-13T00:57:03;14.80;99.90
20831;DHT22;10576;53.556;9.868;2023-07-13T00:59:29;14.80;99.90
20831;DHT22;10576;53.556;9.868;2023-07-13T01:01:55;14.80;99.90
20831;DHT22;10576;53.556;9.868;2023-07-13T01:04:23;14.80;99.90
20831;DHT22;10576;53.556;9.868;2023-07-13T01:06:49;14.80;99.90
20831;DHT22;10576;53.556;9.868;2023-07-13T01:09:14;14.80;99.90
20831;DHT22;10576;53.556;9.868;2023-07-13T01:11:41;14.80;99.90
20831;DHT22;10576;53.556;9.868;2023-07-13T01:14:07;14.70;99.90
20831;DHT22;10576;53.556;9.868;2023-07-13T01:16:34;14.80;99.90
20831;DHT22;10576;53.556;9.868;2023-07-13T01:19:01;14.70;99.90
20831;DHT22;10576;53.556;9.868;2023-07-13T01:21:27;14.70;99.90
20831;DHT22;10576;53.556;9.868;2023-07-13T01:23:53;14.70;99.90
20831;DHT22;10576;53.556;9.868;2023-07-13T01:26:19;14.70;99.90
20831;DHT22;10576;53.556;9.868;2023-07-13T01:28:44;14.70;99.90
20831;DHT22;10576;53.556;9.868;2023-07-13T01:31:10;14.70;99.90
20831;DHT22;10576;53.556;9.868;2023-07-13T01:33:39;14.70;99.90
20831;DHT22;10576;53.556;9.868;2023-07-13T01:36:08;14.60;99.90
20831;DHT22;10576;53.556;9.868;2023-07-13T01:38:34;14.70;99.90
20831;DHT22;10576;53.556;9.868;2023-07-13T01:41:00;14.60;99.90
20831;DHT22;10576;53.556;9.868;2023-07-13T01:43:26;14.60;99.90
20831;DHT22;10576;53.556;9.868;2023-07-13T01:45:51;14.60;99.90
20831;DHT22;10576;53.556;9.868;2023-07-13T01:48:17;14.60;99.90
20831;DHT22;10576;53.556;9.868;2023-07-13T01:50:42;14.60;99.90
20831;DHT22;10576;53.556;9.868;2023-07-13T01:53:08;14.60;99.90
20831;DHT22;10576;53.556;9.868;2023-07-13T01:55:34;14.60;99.90
20831;DHT22;10576;53.556;9.868;2023-07-13T01:58:00;14.60;99.90
20831;DHT22;10576;53.556;9.868;2023-07-13T02:00:26;14.50;99.90
20831;DHT22;10576;53.556;9.868;2023-07-13T02:02:51;14.50;99.90
20831;DHT22;10576;53.556;9.868;2023-07-13T02:05:17;14.50;99.90
20831;DHT22;10576;53.556;9.868;2023-07-13T02:07:42;14.50;99.90
20831;DHT22;10576;53.556;9.868;2023-07-13T02:10:08;14.50;99.90
20831;DHT22;10576;53.556;9.868;2023-07-13T02:12:34;14.50;99.90
20831;DHT22;10576;53.556;9.868;2023-07-13T02:14:59;14.40;99.90
20831;DHT22;10576;53.556;9.868;2023-07-13T02:17:25;14.40;99.90
20831;DHT22;10576;53.556;9.868;2023-07-13T02:19:51;14.40;99.90
20831;DHT22;10576;53.556;9.868;2023-07-13T02:22:17;14.40;99.90
20831;DHT22;10576;53.556;9.868;2023-07-13T02:24:42;14.40;99.90
20831;DHT22;10576;53.556;9.868;2023-07-13T02:27:08;14.40;99.90
20831;DHT22;10576;53.556;9.868;2023-07-13T02:29:33;14.40;99.90
20831;DHT22;10576;53.556;9.868;2023-07-13T02:31:59;14.40;99.90
20831;DHT22;10576;53.556;9.868;2023-07-13T02:34:24;14.40;99.90
20831;DHT22;10576;53.556;9.868;2023-07-13T02:36:50;14.40;99.90
20831;DHT22;10576;53.556;9.868;2023-07-13T02:39:15;14.30;99.90
20831;DHT22;10576;53.556;9.868;2023-07-13T02:41:41;14.30;99.90
20831;DHT22;10576;53.556;9.868;2023-07-13T02:44:07;14.30;99.90
20831;DHT22;10576;53.556;9.868;2023-07-13T02:46:34;14.20;99.90
20831;DHT22;10576;53.556;9.868;2023-07-13T02:49:00;14.20;99.90
20831;DHT22;10576;53.556;9.868;2023-07-13T02:51:25;14.20;99.90
20831;DHT22;10576;53.556;9.868;2023-07-13T02:53:51;14.20;99.90
20831;DHT22;10576;53.556;9.868;2023-07-13T02:56:18;14.20;99.90
20831;DHT22;10576;53.556;9.868;2023-07-13T02:58:44;14.20;99.90
20831;DHT22;10576;53.556;9.868;2023-07-13T03:01:10;14.20;99.90
20831;DHT22;10576;53.556;9.868;2023-07-13T03:03:36;14.20;99.90
20831;DHT22;10576;53.556;9.868;2023-07-13T03:06:02;14.20;99.90
20831;DHT22;10576;53.556;9.868;2023-07-13T03:08:28;14.10;99.90
20831;DHT22;10576;53.556;9.868;2023-07-13T03:13:49;14.10;99.90
20831;DHT22;10576;53.556;9.868;2023-07-13T03:16:14;14.10;99.90
20831;DHT22;10576;53.556;9.868;2023-07-13T03:18:41;14.10;99.90
20831;DHT22;10576;53.556;9.868;2023-07-13T03:21:07;14.10;99.90
20831;DHT22;10576;53.556;9.868;2023-07-13T03:23:32;14.10;99.90
20831;DHT22;10576;53.556;9.868;2023-07-13T03:26:08;14.00;99.90
20831;DHT22;10576;53.556;9.868;2023-07-13T03:28:34;14.00;99.90
20831;DHT22;10576;53.556;9.868;2023-07-13T03:31:05;14.00;99.90
20831;DHT22;10576;53.556;9.868;2023-07-13T03:33:30;14.00;99.90
20831;DHT22;10576;53.556;9.868;2023-07-13T03:35:56;14.00;99.90
20831;DHT22;10576;53.556;9.868;2023-07-13T03:38:22;14.00;99.90
20831;DHT22;10576;53.556;9.868;2023-07-13T03:40:48;14.00;99.90
20831;DHT22;10576;53.556;9.868;2023-07-13T03:43:14;14.00;99.90
20831;DHT22;10576;53.556;9.868;2023-07-13T03:45:39;14.00;99.90
20831;DHT22;10576;53.556;9.868;2023-07-13T03:48:05;14.00;99.90
20831;DHT22;10576;53.556;9.868;2023-07-13T03:50:31;13.90;99.90
20831;DHT22;10576;53.556;9.868;2023-07-13T03:52:59;14.00;99.90
20831;DHT22;10576;53.556;9.868;2023-07-13T03:55:25;14.00;99.90
20831;DHT22;10576;53.556;9.868;2023-07-13T03:57:54;14.00;99.90
20831;DHT22;10576;53.556;9.868;2023-07-13T04:00:19;14.00;99.90
20831;DHT22;10576;53.556;9.868;2023-07-13T04:02:45;14.00;99.90
20831;DHT22;10576;53.556;9.868;2023-07-13T04:05:12;14.00;99.90
20831;DHT22;10576;53.556;9.868;2023-07-13T04:07:38;14.00;99.90
20831;DHT22;10576;53.556;9.868;2023-07-13T04:10:03;14.10;99.90
20831;DHT22;10576;53.556;9.868;2023-07-13T04:12:29;14.10;99.90
20831;DHT22;10576;53.556;9.868;2023-07-13T04:14:54;14.10;99.90
20831;DHT22;10576;53.556;9.868;2023-07-13T04:17:20;14.10;99.90
20831;DHT22;10576;53.556;9.868;2023-07-13T04:19:45;14.10;99.90
20831;DHT22;10576;53.556;9.868;2023-07-13T04:22:11;14.10;99.90
20831;DHT22;10576;53.556;9.868;2023-07-13T04:24:36;14.10;99.90
20831;DHT22;10576;53.556;9.868;2023-07-13T04:27:02;14.10;99.90
20831;DHT22;10576;53.556;9.868;2023-07-13T04:29:28;14.20;99.90
20831;DHT22;10576;53.556;9.868;2023-07-13T04:31:53;14.20;99.90
20831;DHT22;10576;53.556;9.868;2023-07-13T04:34:19;14.20;99.90
20831;DHT22;10576;53.556;9.868;2023-07-13T04:36:44;14.30;99.90
20831;DHT22;10576;53.556;9.868;2023-07-13T04:39:10;14.30;99.90
20831;DHT22;10576;53.556;9.868;2023-07-13T04:41:35;14.30;99.90
20831;DHT22;10576;53.556;9.868;2023-07-13T04:44:01;14.30;99.90
20831;DHT22;10576;53.556;9.868;2023-07-13T04:46:28;14.40;99.90
20831;DHT22;10576;53.556;9.868;2023-07-13T04:48:53;14.40;99.90
20831;DHT22;10576;53.556;9.868;2023-07-13T04:51:19;14.40;99.90
20831;DHT22;10576;53.556;9.868;2023-07-13T04:53:45;14.40;99.90
20831;DHT22;10576;53.556;9.868;2023-07-13T04:56:10;14.50;99.90
20831;DHT22;10576;53.556;9.868;2023-07-13T04:58:36;14.50;99.90
20831;DHT22;10576;53.556;9.868;2023-07-13T05:01:02;14.60;99.90
20831;DHT22;10576;53.556;9.868;2023-07-13T05:03:28;14.60;99.90
20831;DHT22;10576;53.556;9.868;2023-07-13T05:06:01;14.70;99.90
20831;DHT22;10576;53.556;9.868;2023-07-13T05:08:26;14.70;99.90
20831;DHT22;10576;53.556;9.868;2023-07-13T05:10:52;14.80;99.90
20831;DHT22;10576;53.556;9.868;2023-07-13T05:13:18;14.90;99.90
20831;DHT22;10576;53.556;9.868;2023-07-13T05:15:44;15.00;99.90
20831;DHT22;10576;53.556;9.868;2023-07-13T05:18:09;15.10;99.90
20831;DHT22;10576;53.556;9.868;2023-07-13T05:20:35;15.10;99.90
20831;DHT22;10576;53.556;9.868;2023-07-13T05:23:00;15.30;99.90
20831;DHT22;10576;53.556;9.868;2023-07-13T05:25:26;15.30;99.90
20831;DHT22;10576;53.556;9.868;2023-07-13T05:27:52;15.40;99.90
20831;DHT22;10576;53.556;9.868;2023-07-13T05:30:17;15.50;99.90
20831;DHT22;10576;53.556;9.868;2023-07-13T05:32:43;15.50;99.90
20831;DHT22;10576;53.556;9.868;2023-07-13T05:35:08;15.50;99.90
20831;DHT22;10576;53.556;9.868;2023-07-13T05:37:34;15.50;99.90
20831;DHT22;10576;53.556;9.868;2023-07-13T05:39:59;15.50;99.90
20831;DHT22;10576;53.556;9.868;2023-07-13T05:42:25;15.60;99.90
20831;DHT22;10576;53.556;9.868;2023-07-13T05:44:50;15.60;99.90
20831;DHT22;10576;53.556;9.868;2023-07-13T05:47:16;15.60;99.90
20831;DHT22;10576;53.556;9.868;2023-07-13T05:49:41;15.60;99.90
20831;DHT22;10576;53.556;9.868;2023-07-13T05:52:07;15.60;99.90
20831;DHT22;10576;53.556;9.868;2023-07-13T05:54:32;15.60;99.90
20831;DHT22;10576;53.556;9.868;2023-07-13T05:56:58;15.70;99.90
20831;DHT22;10576;53.556;9.868;2023-07-13T05:59:23;15.60;99.90
20831;DHT22;10576;53.556;9.868;2023-07-13T06:01:49;15.60;99.90
20831;DHT22;10576;53.556;9.868;2023-07-13T06:04:14;15.70;99.90
20831;DHT22;10576;53.556;9.868;2023-07-13T06:06:40;15.70;99.90
20831;DHT22;10576;53.556;9.868;2023-07-13T06:09:05;15.70;99.90
20831;DHT22;10576;53.556;9.868;2023-07-13T06:11:31;15.80;99.90
20831;DHT22;10576;53.556;9.868;2023-07-13T06:13:57;15.80;99.90
20831;DHT22;10576;53.556;9.868;2023-07-13T06:16:22;15.90;99.90
20831;DHT22;10576;53.556;9.868;2023-07-13T06:18:48;15.90;99.90
20831;DHT22;10576;53.556;9.868;2023-07-13T06:21:17;17.30;99.90
20831;DHT22;10576;53.556;9.868;2023-07-13T06:23:44;16.00;99.90
20831;DHT22;10576;53.556;9.868;2023-07-13T06:26:10;16.10;99.90
20831;DHT22;10576;53.556;9.868;2023-07-13T06:28:36;16.10;99.90
20831;DHT22;10576;53.556;9.868;2023-07-13T06:31:01;16.20;99.90
20831;DHT22;10576;53.556;9.868;2023-07-13T06:33:27;16.20;99.90
20831;DHT22;10576;53.556;9.868;2023-07-13T06:35:53;16.20;99.90
20831;DHT22;10576;53.556;9.868;2023-07-13T06:38:20;16.30;99.90
20831;DHT22;10576;53.556;9.868;2023-07-13T06:40:45;16.30;99.90
20831;DHT22;10576;53.556;9.868;2023-07-13T06:43:11;16.30;99.90
20831;DHT22;10576;53.556;9.868;2023-07-13T06:45:40;16.40;99.90
20831;DHT22;10576;53.556;9.868;2023-07-13T06:48:06;16.40;99.90
20831;DHT22;10576;53.556;9.868;2023-07-13T06:50:31;16.40;99.90
20831;DHT22;10576;53.556;9.868;2023-07-13T06:52:57;16.90;99.90
20831;DHT22;10576;53.556;9.868;2023-07-13T06:55:24;16.60;99.90
20831;DHT22;10576;53.556;9.868;2023-07-13T06:57:49;16.80;99.90
20831;DHT22;10576;53.556;9.868;2023-07-13T07:00:15;16.90;99.90
20831;DHT22;10576;53.556;9.868;2023-07-13T07:02:40;16.90;99.90
20831;DHT22;10576;53.556;9.868;2023-07-13T07:05:06;16.90;99.90
20831;DHT22;10576;53.556;9.868;2023-07-13T07:07:31;17.10;99.90
20831;DHT22;10576;53.556;9.868;2023-07-13T07:09:57;17.20;99.90
20831;DHT22;10576;53.556;9.868;2023-07-13T07:12:22;17.30;99.90
20831;DHT22;10576;53.556;9.868;2023-07-13T07:14:48;17.30;99.90
20831;DHT22;10576;53.556;9.868;2023-07-13T07:17:13;17.40;99.90
20831;DHT22;10576;53.556;9.868;2023-07-13T07:19:39;17.30;99.90
20831;DHT22;10576;53.556;9.868;2023-07-13T07:22:05;17.40;99.90
20831;DHT22;10576;53.556;9.868;2023-07-13T07:24:31;17.60;99.90
20831;DHT22;10576;53.556;9.868;2023-07-13T07:26:56;17.70;99.90
20831;DHT22;10576;53.556;9.868;2023-07-13T07:29:22;17.80;99.90
20831;DHT22;10576;53.556;9.868;2023-07-13T07:31:48;17.90;99.90
20831;DHT22;10576;53.556;9.868;2023-07-13T07:34:13;17.90;99.90
20831;DHT22;10576;53.556;9.868;2023-07-13T07:36:39;18.00;99.90
20831;DHT22;10576;53.556;9.868;2023-07-13T07:39:04;18.00;99.90
20831;DHT22;10576;53.556;9.868;2023-07-13T07:41:30;18.20;99.90
20831;DHT22;10576;53.556;9.868;2023-07-13T07:43:55;18.50;99.90
20831;DHT22;10576;53.556;9.868;2023-07-13T07:46:21;18.50;99.90
20831;DHT22;10576;53.556;9.868;2023-07-13T07:48:46;18.50;99.90
20831;DHT22;10576;53.556;9.868;2023-07-13T07:51:12;18.50;99.90
20831;DHT22;10576;53.556;9.868;2023-07-13T07:53:37;18.50;99.90
20831;DHT22;10576;53.556;9.868;2023-07-13T07:56:03;18.60;99.90
20831;DHT22;10576;53.556;9.868;2023-07-13T07:58:28;18.50;99.90
20831;DHT22;10576;53.556;9.868;2023-07-13T08:00:54;18.50;99.90
20831;DHT22;10576;53.556;9.868;2023-07-13T08:03:19;18.60;99.90
20831;DHT22;10576;53.556;9.868;2023-07-13T08:05:45;18.70;99.90
20831;DHT22;10576;53.556;9.868;2023-07-13T08:08:10;18.90;99.90
20831;DHT22;10576;53.556;9.868;2023-07-13T08:10:36;19.20;99.90
20831;DHT22;10576;53.556;9.868;2023-07-13T08:13:02;19.50;99.90
20831;DHT22;10576;53.556;9.868;2023-07-13T08:15:28;19.40;99.90
20831;DHT22;10576;53.556;9.868;2023-07-13T08:17:54;19.30;99.90
20831;DHT22;10576;53.556;9.868;2023-07-13T08:20:19;19.40;99.90
20831;DHT22;10576;53.556;9.868;2023-07-13T08:22:45;19.50;99.90
20831;DHT22;10576;53.556;9.868;2023-07-13T08:25:11;19.50;99.90
20831;DHT22;10576;53.556;9.868;2023-07-13T08:27:37;19.50;99.90
20831;DHT22;10576;53.556;9.868;2023-07-13T08:30:02;19.40;99.90
20831;DHT22;10576;53.556;9.868;2023-07-13T08:32:28;19.40;99.90
20831;DHT22;10576;53.556;9.868;2023-07-13T08:34:54;19.60;99.90
20831;DHT22;10576;53.556;9.868;2023-07-13T08:37:19;19.00;99.90
20831;DHT22;10576;53.556;9.868;2023-07-13T08:39:45;19.00;99.90
20831;DHT22;10576;53.556;9.868;2023-07-13T08:42:15;19.20;99.90
20831;DHT22;10576;53.556;9.868;2023-07-13T08:47:09;20.00;99.90
20831;DHT22;10576;53.556;9.868;2023-07-13T08:49:35;20.50;99.90
20831;DHT22;10576;53.556;9.868;2023-07-13T08:52:02;20.80;99.90
20831;DHT22;10576;53.556;9.868;2023-07-13T08:54:41;20.60;99.90
20831;DHT22;10576;53.556;9.868;2023-07-13T08:57:16;20.50;99.90
20831;DHT22;10576;53.556;9.868;2023-07-13T08:59:42;20.70;99.90
20831;DHT22;10576;53.556;9.868;2023-07-13T09:02:24;21.30;99.90
20831;DHT22;10576;53.556;9.868;2023-07-13T09:05:10;21.20;99.90
20831;DHT22;10576;53.556;9.868;2023-07-13T09:10:17;21.30;99.90
20831;DHT22;10576;53.556;9.868;2023-07-13T09:15:24;21.60;99.90
20831;DHT22;10576;53.556;9.868;2023-07-13T09:17:50;21.90;99.90
20831;DHT22;10576;53.556;9.868;2023-07-13T09:22:45;21.70;99.90
20831;DHT22;10576;53.556;9.868;2023-07-13T09:25:18;21.50;99.90
20831;DHT22;10576;53.556;9.868;2023-07-13T09:27:46;21.50;99.90
20831;DHT22;10576;53.556;9.868;2023-07-13T09:32:38;21.10;99.90
20831;DHT22;10576;53.556;9.868;2023-07-13T09:35:11;21.60;99.90
20831;DHT22;10576;53.556;9.868;2023-07-13T09:37:38;22.00;99.90
20831;DHT22;10576;53.556;9.868;2023-07-13T09:40:05;22.40;99.90
20831;DHT22;10576;53.556;9.868;2023-07-13T09:42:36;22.40;99.90
20831;DHT22;10576;53.556;9.868;2023-07-13T09:45:02;22.20;99.90
20831;DHT22;10576;53.556;9.868;2023-07-13T09:47:29;22.00;99.90
20831;DHT22;10576;53.556;9.868;2023-07-13T09:50:02;22.20;99.90
20831;DHT22;10576;53.556;9.868;2023-07-13T09:52:39;22.20;99.90
20831;DHT22;10576;53.556;9.868;2023-07-13T09:55:12;22.40;99.90
20831;DHT22;10576;53.556;9.868;2023-07-13T09:57:47;21.80;99.90
20831;DHT22;10576;53.556;9.868;2023-07-13T10:00:20;21.70;99.90
20831;DHT22;10576;53.556;9.868;2023-07-13T10:02:46;21.90;99.90
20831;DHT22;10576;53.556;9.868;2023-07-13T10:05:22;22.40;99.90
20831;DHT22;10576;53.556;9.868;2023-07-13T10:07:50;22.40;99.90
20831;DHT22;10576;53.556;9.868;2023-07-13T10:10:16;22.30;99.90
20831;DHT22;10576;53.556;9.868;2023-07-13T10:12:43;22.00;99.90
20831;DHT22;10576;53.556;9.868;2023-07-13T10:15:17;22.60;99.90
20831;DHT22;10576;53.556;9.868;2023-07-13T10:17:42;22.80;99.90
20831;DHT22;10576;53.556;9.868;2023-07-13T10:20:09;23.10;99.90
20831;DHT22;10576;53.556;9.868;2023-07-13T10:25:15;22.90;99.90
20831;DHT22;10576;53.556;9.868;2023-07-13T10:27:42;23.00;99.90
20831;DHT22;10576;53.556;9.868;2023-07-13T10:32:34;23.40;99.90
20831;DHT22;10576;53.556;9.868;2023-07-13T10:34:59;23.60;99.90
20831;DHT22;10576;53.556;9.868;2023-07-13T10:37:27;23.90;99.90
20831;DHT22;10576;53.556;9.868;2023-07-13T10:39:54;24.00;99.90
20831;DHT22;10576;53.556;9.868;2023-07-13T10:42:39;23.60;99.90
20831;DHT22;10576;53.556;9.868;2023-07-13T10:45:20;23.20;99.90
20831;DHT22;10576;53.556;9.868;2023-07-13T10:47:47;23.20;99.90
20831;DHT22;10576;53.556;9.868;2023-07-13T10:50:15;23.60;99.90
20831;DHT22;10576;53.556;9.868;2023-07-13T10:52:44;24.30;99.90
20831;DHT22;10576;53.556;9.868;2023-07-13T10:55:30;24.10;99.90
20831;DHT22;10576;53.556;9.868;2023-07-13T10:57:59;24.30;99.90
20831;DHT22;10576;53.556;9.868;2023-07-13T11:00:25;24.40;99.90
20831;DHT22;10576;53.556;9.868;2023-07-13T11:02:57;24.30;99.90
20831;DHT22;10576;53.556;9.868;2023-07-13T11:05:26;24.00;99.90
20831;DHT22;10576;53.556;9.868;2023-07-13T11:15:58;23.50;99.90
20831;DHT22;10576;53.556;9.868;2023-07-13T11:18:24;23.30;99.90
20831;DHT22;10576;53.556;9.868;2023-07-13T11:20:50;23.10;99.90
20831;DHT22;10576;53.556;9.868;2023-07-13T11:25:42;23.40;99.90
20831;DHT22;10576;53.556;9.868;2023-07-13T11:28:15;24.00;99.90
20831;DHT22;10576;53.556;9.868;2023-07-13T11:33:14;23.30;99.90
20831;DHT22;10576;53.556;9.868;2023-07-13T11:35:45;23.20;99.90
20831;DHT22;10576;53.556;9.868;2023-07-13T11:38:13;22.90;99.90
20831;DHT22;10576;53.556;9.868;2023-07-13T11:40:40;22.90;99.90
20831;DHT22;10576;53.556;9.868;2023-07-13T11:43:06;22.90;99.90
20831;DHT22;10576;53.556;9.868;2023-07-13T11:45:33;22.80;99.90
20831;DHT22;10576;53.556;9.868;2023-07-13T11:47:58;22.50;99.90
20831;DHT22;10576;53.556;9.868;2023-07-13T11:50:26;22.20;99.90
20831;DHT22;10576;53.556;9.868;2023-07-13T11:52:52;22.10;99.90
20831;DHT22;10576;53.556;9.868;2023-07-13T11:55:20;22.20;99.90
20831;DHT22;10576;53.556;9.868;2023-07-13T11:57:56;22.40;99.90
20831;DHT22;10576;53.556;9.868;2023-07-13T12:00:25;22.60;99.90
20831;DHT22;10576;53.556;9.868;2023-07-13T12:02:52;22.50;99.90
20831;DHT22;10576;53.556;9.868;2023-07-13T12:05:19;22.20;99.90
20831;DHT22;10576;53.556;9.868;2023-07-13T12:07:45;21.90;99.90
20831;DHT22;10576;53.556;9.868;2023-07-13T12:10:19;21.70;99.90
20831;DHT22;10576;53.556;9.868;2023-07-13T12:12:46;21.20;99.90
20831;DHT22;10576;53.556;9.868;2023-07-13T12:15:13;20.30;99.90
20831;DHT22;10576;53.556;9.868;2023-07-13T12:17:38;19.90;99.90
20831;DHT22;10576;53.556;9.868;2023-07-13T12:20:13;19.40;99.90
20831;DHT22;10576;53.556;9.868;2023-07-13T12:22:45;19.10;99.90
20831;DHT22;10576;53.556;9.868;2023-07-13T12:25:11;18.70;99.90
20831;DHT22;10576;53.556;9.868;2023-07-13T12:27:37;18.40;99.90
20831;DHT22;10576;53.556;9.868;2023-07-13T12:30:04;18.30;99.90
20831;DHT22;10576;53.556;9.868;2023-07-13T12:32:34;18.30;99.90
20831;DHT22;10576;53.556;9.868;2023-07-13T12:35:15;18.40;99.90
20831;DHT22;10576;53.556;9.868;2023-07-13T12:37:42;18.60;99.90
20831;DHT22;10576;53.556;9.868;2023-07-13T12:40:13;19.10;99.90
20831;DHT22;10576;53.556;9.868;2023-07-13T12:42:38;19.20;99.90
20831;DHT22;10576;53.556;9.868;2023-07-13T12:45:19;19.50;99.90
20831;DHT22;10576;53.556;9.868;2023-07-13T12:47:47;19.40;99.90
20831;DHT22;10576;53.556;9.868;2023-07-13T12:50:18;19.20;99.90
20831;DHT22;10576;53.556;9.868;2023-07-13T12:52:44;19.30;99.90
20831;DHT22;10576;53.556;9.868;2023-07-13T12:55:16;19.20;99.90
20831;DHT22;10576;53.556;9.868;2023-07-13T13:00:28;18.90;99.90
20831;DHT22;10576;53.556;9.868;2023-07-13T13:02:55;18.60;99.90
20831;DHT22;10576;53.556;9.868;2023-07-13T13:05:21;18.50;99.90
20831;DHT22;10576;53.556;9.868;2023-07-13T13:07:49;18.30;99.90
20831;DHT22;10576;53.556;9.868;2023-07-13T13:10:14;18.50;99.90
20831;DHT22;10576;53.556;9.868;2023-07-13T13:12:40;18.50;99.90
20831;DHT22;10576;53.556;9.868;2023-07-13T13:15:09;18.60;99.90
20831;DHT22;10576;53.556;9.868;2023-07-13T13:17:35;19.30;99.90
20831;DHT22;10576;53.556;9.868;2023-07-13T13:20:00;19.30;99.90
20831;DHT22;10576;53.556;9.868;2023-07-13T13:22:26;19.30;99.90
20831;DHT22;10576;53.556;9.868;2023-07-13T13:24:52;19.30;99.90
20831;DHT22;10576;53.556;9.868;2023-07-13T13:27:18;19.30;99.90
20831;DHT22;10576;53.556;9.868;2023-07-13T13:29:45;19.30;99.90
20831;DHT22;10576;53.556;9.868;2023-07-13T13:32:14;19.20;99.90
20831;DHT22;10576;53.556;9.868;2023-07-13T13:34:40;19.30;99.90
20831;DHT22;10576;53.556;9.868;2023-07-13T13:37:19;19.30;99.90
20831;DHT22;10576;53.556;9.868;2023-07-13T13:39:45;19.40;99.90
20831;DHT22;10576;53.556;9.868;2023-07-13T13:42:12;19.40;99.90
20831;DHT22;10576;53.556;9.868;2023-07-13T13:44:37;19.30;99.90
20831;DHT22;10576;53.556;9.868;2023-07-13T13:47:03;19.30;99.90
20831;DHT22;10576;53.556;9.868;2023-07-13T13:49:29;19.30;99.90
20831;DHT22;10576;53.556;9.868;2023-07-13T13:51:55;19.30;99.90
20831;DHT22;10576;53.556;9.868;2023-07-13T13:54:21;19.20;99.90
20831;DHT22;10576;53.556;9.868;2023-07-13T13:56:48;19.00;99.90
20831;DHT22;10576;53.556;9.868;2023-07-13T13:59:13;18.80;99.90
20831;DHT22;10576;53.556;9.868;2023-07-13T14:01:40;18.80;99.90
20831;DHT22;10576;53.556;9.868;2023-07-13T14:04:05;19.00;99.90
20831;DHT22;10576;53.556;9.868;2023-07-13T14:06:31;19.30;99.90
20831;DHT22;10576;53.556;9.868;2023-07-13T14:08:57;19.50;99.90
20831;DHT22;10576;53.556;9.868;2023-07-13T14:11:23;19.60;99.90
20831;DHT22;10576;53.556;9.868;2023-07-13T14:13:49;19.50;99.90
20831;DHT22;10576;53.556;9.868;2023-07-13T14:16:16;19.30;99.90
20831;DHT22;10576;53.556;9.868;2023-07-13T14:18:46;19.20;99.90
20831;DHT22;10576;53.556;9.868;2023-07-13T14:21:12;19.20;99.90
20831;DHT22;10576;53.556;9.868;2023-07-13T14:23:38;19.20;99.90
20831;DHT22;10576;53.556;9.868;2023-07-13T14:26:08;18.70;99.90
20831;DHT22;10576;53.556;9.868;2023-07-13T14:28:34;19.20;99.90
20831;DHT22;10576;53.556;9.868;2023-07-13T14:31:00;19.30;99.90
20831;DHT22;10576;53.556;9.868;2023-07-13T14:33:26;19.40;99.90
20831;DHT22;10576;53.556;9.868;2023-07-13T14:35:51;19.50;99.90
20831;DHT22;10576;53.556;9.868;2023-07-13T14:38:18;19.50;99.90
20831;DHT22;10576;53.556;9.868;2023-07-13T14:40:45;19.40;99.90
20831;DHT22;10576;53.556;9.868;2023-07-13T14:43:11;19.30;99.90
20831;DHT22;10576;53.556;9.868;2023-07-13T14:45:38;19.20;99.90
20831;DHT22;10576;53.556;9.868;2023-07-13T14:48:10;19.10;99.90
20831;DHT22;10576;53.556;9.868;2023-07-13T14:50:38;19.00;99.90
20831;DHT22;10576;53.556;9.868;2023-07-13T14:53:04;18.90;99.90
20831;DHT22;10576;53.556;9.868;2023-07-13T14:55:29;19.00;99.90
20831;DHT22;10576;53.556;9.868;2023-07-13T14:57:55;19.10;99.90
20831;DHT22;10576;53.556;9.868;2023-07-13T15:00:22;19.10;99.90
20831;DHT22;10576;53.556;9.868;2023-07-13T15:02:51;19.10;99.90
20831;DHT22;10576;53.556;9.868;2023-07-13T15:05:20;20.20;99.90
20831;DHT22;10576;53.556;9.868;2023-07-13T15:07:46;19.10;99.90
20831;DHT22;10576;53.556;9.868;2023-07-13T15:10:19;19.10;99.90
20831;DHT22;10576;53.556;9.868;2023-07-13T15:12:45;19.40;99.90
20831;DHT22;10576;53.556;9.868;2023-07-13T15:15:11;19.30;99.90
20831;DHT22;10576;53.556;9.868;2023-07-13T15:17:41;19.10;99.90
20831;DHT22;10576;53.556;9.868;2023-07-13T15:20:29;19.10;99.90
20831;DHT22;10576;53.556;9.868;2023-07-13T15:22:53;19.20;99.90
20831;DHT22;10576;53.556;9.868;2023-07-13T15:25:19;19.10;99.90
20831;DHT22;10576;53.556;9.868;2023-07-13T15:27:46;19.10;99.90
20831;DHT22;10576;53.556;9.868;2023-07-13T15:30:12;19.10;99.90
20831;DHT22;10576;53.556;9.868;2023-07-13T15:32:38;19.20;99.90
20831;DHT22;10576;53.556;9.868;2023-07-13T15:35:05;19.20;99.90
20831;DHT22;10576;53.556;9.868;2023-07-13T15:37:30;19.20;99.90
20831;DHT22;10576;53.556;9.868;2023-07-13T15:39:56;19.30;99.90
20831;DHT22;10576;53.556;9.868;2023-07-13T15:42:22;19.30;99.90
20831;DHT22;10576;53.556;9.868;2023-07-13T15:44:48;19.20;99.90
20831;DHT22;10576;53.556;9.868;2023-07-13T15:47:14;19.40;99.90
20831;DHT22;10576;53.556;9.868;2023-07-13T15:49:40;19.30;99.90
20831;DHT22;10576;53.556;9.868;2023-07-13T15:52:16;19.40;99.90
20831;DHT22;10576;53.556;9.868;2023-07-13T15:54:42;19.40;99.90
20831;DHT22;10576;53.556;9.868;2023-07-13T15:57:08;19.00;99.90
20831;DHT22;10576;53.556;9.868;2023-07-13T15:59:34;19.70;99.90
20831;DHT22;10576;53.556;9.868;2023-07-13T16:02:00;19.60;99.90
20831;DHT22;10576;53.556;9.868;2023-07-13T16:04:27;19.50;99.90